createdAt,value
2022-11-28T00:01:21.305Z,16.33
2022-11-28T00:03:48.121Z,13.47
2022-11-28T00:06:15.070Z,14.87
2022-11-28T00:08:41.626Z,14.40
2022-11-28T00:11:11.119Z,13.13
2022-11-28T00:13:38.096Z,15.67
2022-11-28T00:16:07.440Z,14.97
2022-11-28T00:18:34.476Z,15.83
2022-11-28T00:21:03.353Z,15.27
2022-11-28T00:23:30.343Z,11.30
2022-11-28T00:25:59.384Z,14.47
2022-11-28T00:28:25.809Z,15.40
2022-11-28T00:30:52.247Z,17.60
2022-11-28T00:33:18.985Z,14.80
2022-11-28T00:35:45.423Z,12.93
2022-11-28T00:38:11.936Z,14.87
2022-11-28T00:40:38.467Z,16.27
2022-11-28T00:43:05.023Z,15.33
2022-11-28T00:45:31.457Z,17.37
2022-11-28T00:47:58.055Z,15.67
2022-11-28T00:50:24.743Z,18.67
2022-11-28T00:52:51.154Z,17.00
2022-11-28T00:55:17.728Z,14.57
2022-11-28T00:57:44.166Z,14.73
2022-11-28T01:00:10.986Z,17.73
2022-11-28T01:02:37.430Z,18.17
2022-11-28T01:05:04.071Z,18.70
2022-11-28T01:07:33.534Z,17.93
2022-11-28T01:09:59.991Z,12.60
2022-11-28T01:12:26.388Z,17.03
2022-11-28T01:14:53.951Z,16.30
2022-11-28T01:17:20.366Z,16.20
2022-11-28T01:19:46.855Z,18.13
2022-11-28T01:22:14.283Z,17.63
2022-11-28T01:24:40.992Z,18.13
2022-11-28T01:27:08.244Z,20.13
2022-11-28T01:29:34.681Z,19.77
2022-11-28T01:32:01.123Z,19.83
2022-11-28T01:34:27.549Z,19.43
2022-11-28T01:36:53.976Z,18.80
2022-11-28T01:39:20.354Z,20.87
2022-11-28T01:41:46.766Z,19.43
2022-11-28T01:44:13.147Z,20.30
2022-11-28T01:46:40.103Z,22.70
2022-11-28T01:49:15.119Z,20.07
2022-11-28T01:51:48.951Z,19.70
2022-11-28T01:54:18.838Z,21.73
2022-11-28T01:56:51.160Z,16.47
2022-11-28T01:59:19.449Z,22.03
2022-11-28T02:01:46.289Z,22.13
2022-11-28T02:04:14.142Z,20.43
2022-11-28T02:06:42.090Z,18.47
2022-11-28T02:09:13.888Z,19.23
2022-11-28T02:12:09.771Z,20.23
2022-11-28T02:14:56.440Z,17.90
2022-11-28T02:17:57.664Z,18.20
2022-11-28T02:20:51.575Z,18.97
2022-11-28T02:23:23.862Z,17.27
2022-11-28T02:26:14.492Z,17.17
2022-11-28T02:28:55.984Z,20.03
2022-11-28T02:32:04.098Z,20.00
2022-11-28T02:34:46.924Z,15.63
2022-11-28T02:37:45.965Z,17.87
2022-11-28T02:40:25.460Z,15.23
2022-11-28T02:43:01.034Z,18.00
2022-11-28T02:45:53.563Z,17.80
2022-11-28T02:48:26.980Z,16.90
2022-11-28T02:51:05.910Z,13.77
2022-11-28T02:53:34.130Z,14.73
2022-11-28T02:56:01.109Z,13.80
2022-11-28T02:58:27.590Z,19.50
2022-11-28T03:00:56.197Z,17.27
2022-11-28T03:03:33.734Z,18.33
2022-11-28T03:06:09.740Z,15.63
2022-11-28T03:08:43.031Z,13.90
2022-11-28T03:11:23.007Z,16.97
2022-11-28T03:13:54.741Z,17.27
2022-11-28T03:16:31.129Z,16.57
2022-11-28T03:19:28.777Z,19.23
2022-11-28T03:22:10.157Z,15.70
2022-11-28T03:25:09.325Z,15.37
2022-11-28T03:27:42.877Z,13.73
2022-11-28T03:30:19.596Z,15.53
2022-11-28T03:32:51.018Z,15.33
2022-11-28T03:35:21.338Z,13.10
2022-11-28T03:37:53.367Z,19.33
2022-11-28T03:40:26.419Z,17.10
2022-11-28T03:43:03.912Z,16.47
2022-11-28T03:45:36.904Z,15.70
2022-11-28T03:48:10.097Z,16.43
2022-11-28T03:51:01.725Z,17.17
2022-11-28T03:53:35.842Z,17.37
2022-11-28T03:56:09.294Z,21.20
2022-11-28T03:58:44.414Z,16.63
2022-11-28T04:01:36.198Z,20.53
2022-11-28T04:04:31.800Z,20.13
2022-11-28T04:07:04.143Z,17.60
2022-11-28T04:09:45.450Z,17.73
2022-11-28T04:12:50.619Z,19.23
2022-11-28T04:15:41.440Z,21.13
2022-11-28T04:18:21.131Z,18.17
2022-11-28T04:20:59.594Z,16.97
2022-11-28T04:23:27.926Z,19.23
2022-11-28T04:26:01.490Z,20.50
2022-11-28T04:28:31.726Z,18.53
2022-11-28T04:31:01.176Z,19.57
2022-11-28T04:33:31.739Z,20.40
2022-11-28T04:35:59.631Z,23.60
2022-11-28T04:38:29.768Z,20.40
2022-11-28T04:41:13.378Z,17.37
2022-11-28T04:43:44.372Z,18.13
2022-11-28T04:46:16.176Z,18.27
2022-11-28T04:48:43.137Z,21.63
2022-11-28T04:51:40.624Z,17.97
2022-11-28T04:54:25.403Z,17.57
2022-11-28T04:57:28.096Z,18.83
2022-11-28T04:59:56.000Z,15.13
2022-11-28T05:02:24.233Z,18.80
2022-11-28T05:04:55.495Z,18.93
2022-11-28T05:07:22.129Z,17.07
2022-11-28T05:09:48.630Z,17.67
2022-11-28T05:12:15.018Z,17.77
2022-11-28T05:14:41.642Z,17.77
2022-11-28T05:17:08.485Z,19.33
2022-11-28T05:19:34.901Z,18.87
2022-11-28T05:22:01.294Z,19.47
2022-11-28T05:24:32.080Z,19.93
2022-11-28T05:26:58.904Z,18.87
2022-11-28T05:29:25.739Z,17.80
2022-11-28T05:31:52.305Z,22.47
2022-11-28T05:34:18.854Z,21.27
2022-11-28T05:36:45.289Z,18.67
2022-11-28T05:39:11.737Z,20.97
2022-11-28T05:41:38.172Z,21.90
2022-11-28T05:44:04.658Z,20.57
2022-11-28T05:46:31.189Z,24.10
2022-11-28T05:48:57.771Z,25.83
2022-11-28T05:51:24.517Z,25.90
2022-11-28T05:53:50.931Z,30.43
2022-11-28T05:56:18.916Z,28.97
2022-11-28T05:58:45.822Z,24.43
2022-11-28T06:01:17.721Z,25.53
2022-11-28T06:03:44.368Z,26.87
2022-11-28T06:06:13.870Z,31.23
2022-11-28T06:08:40.901Z,28.80
2022-11-28T06:11:07.842Z,28.63
2022-11-28T06:13:34.644Z,32.27
2022-11-28T06:16:01.085Z,26.30
2022-11-28T06:18:27.654Z,35.43
2022-11-28T06:20:54.371Z,32.00
2022-11-28T06:23:20.761Z,33.07
2022-11-28T06:25:47.215Z,40.87
2022-11-28T06:28:13.609Z,33.07
2022-11-28T06:30:39.993Z,44.43
2022-11-28T06:33:06.395Z,39.57
2022-11-28T06:35:32.871Z,32.73
2022-11-28T06:37:59.361Z,31.63
2022-11-28T06:40:25.746Z,33.87
2022-11-28T06:42:52.185Z,31.13
2022-11-28T06:45:19.016Z,41.57
2022-11-28T06:47:45.427Z,37.43
2022-11-28T06:50:12.104Z,32.47
2022-11-28T06:52:38.549Z,36.40
2022-11-28T06:55:05.346Z,33.53
2022-11-28T06:57:32.719Z,39.10
2022-11-28T06:59:59.212Z,39.87
2022-11-28T07:02:27.547Z,43.50
2022-11-28T07:04:54.051Z,35.90
2022-11-28T07:07:20.543Z,62.53
2022-11-28T07:09:46.960Z,45.27
2022-11-28T07:12:14.391Z,49.63
2022-11-28T07:14:40.809Z,47.33
2022-11-28T07:17:07.260Z,54.07
2022-11-28T07:19:34.371Z,42.40
2022-11-28T07:22:00.942Z,41.73
2022-11-28T07:24:27.610Z,56.87
2022-11-28T07:26:54.014Z,51.57
2022-11-28T07:29:20.499Z,55.03
2022-11-28T07:31:47.035Z,57.57
2022-11-28T07:34:13.552Z,55.50
2022-11-28T07:36:40.029Z,44.93
2022-11-28T07:39:11.322Z,54.83
2022-11-28T07:41:37.841Z,64.80
2022-11-28T07:44:05.079Z,51.90
2022-11-28T07:46:33.244Z,56.40
2022-11-28T07:49:00.301Z,52.80
2022-11-28T07:51:29.810Z,51.20
2022-11-28T07:53:56.534Z,53.43
2022-11-28T07:56:35.020Z,61.93
2022-11-28T07:59:10.995Z,57.00
2022-11-28T08:01:37.557Z,66.90
2022-11-28T08:04:07.642Z,60.73
2022-11-28T08:06:38.359Z,58.67
2022-11-28T08:09:06.954Z,57.03
2022-11-28T08:11:34.148Z,62.57
2022-11-28T08:14:00.921Z,62.17
2022-11-28T08:16:29.370Z,55.03
2022-11-28T08:18:59.674Z,52.77
2022-11-28T08:21:29.378Z,61.97
2022-11-28T08:24:00.108Z,69.83
2022-11-28T08:26:30.552Z,60.73
2022-11-28T08:28:58.866Z,54.47
2022-11-28T08:31:30.155Z,67.97
2022-11-28T08:33:58.813Z,69.87
2022-11-28T08:36:29.011Z,71.67
2022-11-28T08:41:42.788Z,59.90
2022-11-28T08:44:09.223Z,66.40
2022-11-28T08:46:36.306Z,73.80
2022-11-28T08:49:04.556Z,72.07
2022-11-28T08:51:31.931Z,63.23
2022-11-28T08:53:59.724Z,72.93
2022-11-28T08:56:27.024Z,67.53
2022-11-28T08:58:53.461Z,77.00
2022-11-28T09:01:22.864Z,61.63
2022-11-28T09:03:49.641Z,73.50
2022-11-28T09:06:17.083Z,70.17
2022-11-28T09:08:43.726Z,86.33
2022-11-28T09:11:12.681Z,84.20
2022-11-28T09:13:39.139Z,74.93
2022-11-28T09:16:06.253Z,77.93
2022-11-28T09:18:32.978Z,85.10
2022-11-28T09:21:11.618Z,72.47
2022-11-28T09:23:40.888Z,76.70
2022-11-28T09:26:09.200Z,97.57
2022-11-28T09:28:35.609Z,72.70
2022-11-28T09:31:04.276Z,100.73
2022-11-28T09:33:30.879Z,101.20
2022-11-28T09:35:58.300Z,73.60
2022-11-28T09:38:26.009Z,84.37
2022-11-28T09:40:52.817Z,79.47
2022-11-28T09:43:42.622Z,80.10
2022-11-28T09:46:14.826Z,73.63
2022-11-28T09:48:54.647Z,79.60
2022-11-28T09:51:51.992Z,79.13
2022-11-28T09:54:52.422Z,81.27
2022-11-28T09:57:29.919Z,85.57
2022-11-28T09:59:56.394Z,71.83
2022-11-28T10:02:39.702Z,73.20
2022-11-28T10:05:24.711Z,77.67
2022-11-28T10:08:01.914Z,71.20
2022-11-28T10:10:41.336Z,87.00
2022-11-28T10:14:06.124Z,83.87
2022-11-28T10:16:36.528Z,75.57
2022-11-28T10:19:20.624Z,68.97
2022-11-28T10:22:00.657Z,73.53
2022-11-28T10:24:44.672Z,75.00
2022-11-28T10:27:14.414Z,76.20
2022-11-28T10:29:52.127Z,73.73
2022-11-28T10:32:31.454Z,65.83
2022-11-28T10:35:11.904Z,69.40
2022-11-28T10:37:38.976Z,69.17
2022-11-28T10:40:27.606Z,78.97
2022-11-28T10:43:01.868Z,64.97
2022-11-28T10:45:53.244Z,68.67
2022-11-28T10:48:40.622Z,74.50
2022-11-28T10:51:55.225Z,65.77
2022-11-28T10:54:43.620Z,71.73
2022-11-28T10:57:35.899Z,55.63
2022-11-28T11:00:20.034Z,66.20
2022-11-28T11:02:52.018Z,56.90
2022-11-28T11:05:26.915Z,60.33
2022-11-28T11:08:11.557Z,59.77
2022-11-28T11:10:41.446Z,61.37
2022-11-28T11:13:20.512Z,56.07
2022-11-28T11:15:51.571Z,61.90
2022-11-28T11:18:26.579Z,60.37
2022-11-28T11:21:23.855Z,50.40
2022-11-28T11:24:12.051Z,53.50
2022-11-28T11:26:43.510Z,55.53
2022-11-28T11:29:29.245Z,54.30
2022-11-28T11:31:56.154Z,43.90
2022-11-28T11:34:24.249Z,57.70
2022-11-28T11:36:51.591Z,46.10
2022-11-28T11:39:23.783Z,53.40
2022-11-28T11:42:11.911Z,45.97
2022-11-28T11:44:38.569Z,46.67
2022-11-28T11:47:10.362Z,46.07
2022-11-28T11:49:48.696Z,51.43
2022-11-28T11:52:22.760Z,46.53
2022-11-28T11:55:13.279Z,44.27
2022-11-28T11:57:46.422Z,52.73
2022-11-28T12:00:23.895Z,45.27
2022-11-28T12:03:00.682Z,45.57
2022-11-28T12:05:59.365Z,40.07
2022-11-28T12:08:35.223Z,41.03
2022-11-28T12:11:17.388Z,37.77
2022-11-28T12:13:44.288Z,36.93
2022-11-28T12:16:37.131Z,45.30
2022-11-28T12:19:33.812Z,42.97
2022-11-28T12:22:17.214Z,41.10
2022-11-28T12:25:08.698Z,39.77
2022-11-28T12:27:55.809Z,38.63
2022-11-28T12:30:49.478Z,38.63
2022-11-28T12:33:25.522Z,38.37
2022-11-28T12:36:19.967Z,41.80
2022-11-28T12:38:59.261Z,35.17
2022-11-28T12:41:40.605Z,38.10
2022-11-28T12:44:38.679Z,32.50
2022-11-28T12:47:13.993Z,30.03
2022-11-28T12:50:09.069Z,31.37
2022-11-28T12:52:50.541Z,32.30
2022-11-28T12:55:16.869Z,29.93
2022-11-28T12:57:53.611Z,29.70
2022-11-28T13:00:26.077Z,30.20
2022-11-28T13:03:20.084Z,27.67
2022-11-28T13:06:31.013Z,28.03
2022-11-28T13:09:22.310Z,25.67
2022-11-28T13:12:22.887Z,28.07
2022-11-28T13:14:56.654Z,21.33
2022-11-28T13:17:31.811Z,27.87
2022-11-28T13:20:19.176Z,28.27
2022-11-28T13:22:53.462Z,26.37
2022-11-28T13:25:44.555Z,25.63
2022-11-28T13:28:13.695Z,29.50
2022-11-28T13:31:19.091Z,23.90
2022-11-28T13:33:51.600Z,26.27
2022-11-28T13:39:42.274Z,25.47
2022-11-28T13:42:58.924Z,37.83
2022-11-28T13:45:25.159Z,27.57
2022-11-28T13:49:06.043Z,25.00
2022-11-28T13:51:30.993Z,24.60
2022-11-28T13:54:17.488Z,26.27
2022-11-28T13:57:04.054Z,35.70
2022-11-28T13:59:31.765Z,29.67
2022-11-28T14:02:01.931Z,25.90
2022-11-28T14:04:31.080Z,36.37
2022-11-28T14:07:07.416Z,28.90
2022-11-28T14:09:54.889Z,27.23
2022-11-28T14:12:55.818Z,18.40
2022-11-28T14:15:54.437Z,20.13
2022-11-28T14:18:58.636Z,26.87
2022-11-28T14:21:38.878Z,25.03
2022-11-28T14:24:11.097Z,25.57
2022-11-28T14:26:40.657Z,21.27
2022-11-28T14:29:20.194Z,20.77
2022-11-28T14:32:13.730Z,20.97
2022-11-28T14:34:45.813Z,17.83
2022-11-28T14:37:21.905Z,22.67
2022-11-28T14:39:49.774Z,17.80
2022-11-28T14:42:36.724Z,30.83
2022-11-28T14:45:23.811Z,24.43
2022-11-28T14:48:15.644Z,34.67
2022-11-28T14:50:42.027Z,26.47
2022-11-28T14:53:36.385Z,20.40
2022-11-28T14:56:15.108Z,28.70
2022-11-28T14:58:48.889Z,27.83
2022-11-28T15:01:59.293Z,21.43
2022-11-28T15:04:31.582Z,19.77
2022-11-28T15:06:59.992Z,25.80
2022-11-28T15:09:52.115Z,26.30
2022-11-28T15:12:31.609Z,26.53
2022-11-28T15:14:58.611Z,20.63
2022-11-28T15:17:32.455Z,24.63
2022-11-28T15:20:04.421Z,21.70
2022-11-28T15:22:41.887Z,26.07
2022-11-28T15:25:23.919Z,24.20
2022-11-28T15:27:50.895Z,30.63
2022-11-28T15:30:19.768Z,25.20
2022-11-28T15:32:47.474Z,31.67
2022-11-28T15:35:17.429Z,26.63
2022-11-28T15:37:50.586Z,25.47
2022-11-28T15:40:28.905Z,24.57
2022-11-28T15:42:55.602Z,25.93
2022-11-28T15:45:25.456Z,21.83
2022-11-28T15:47:53.502Z,20.43
2022-11-28T15:50:25.013Z,19.47
2022-11-28T15:52:58.300Z,20.70
2022-11-28T15:55:27.668Z,24.03
2022-11-28T15:58:15.903Z,23.90
2022-11-28T16:00:45.639Z,22.90
2022-11-28T16:03:22.640Z,26.10
2022-11-28T16:05:52.530Z,27.27
2022-11-28T16:08:29.743Z,25.17
2022-11-28T16:10:57.851Z,21.73
2022-11-28T16:13:24.970Z,24.07
2022-11-28T16:15:56.031Z,25.83
2022-11-28T16:18:24.553Z,28.50
2022-11-28T16:20:51.102Z,24.37
2022-11-28T16:23:28.328Z,23.83
2022-11-28T16:26:27.898Z,20.93
2022-11-28T16:29:07.913Z,21.83
2022-11-28T16:31:34.936Z,21.37
2022-11-28T16:34:02.077Z,22.70
2022-11-28T16:36:35.768Z,28.80
2022-11-28T16:39:14.429Z,17.27
2022-11-28T16:41:54.919Z,22.97
2022-11-28T16:44:24.806Z,28.37
2022-11-28T16:46:54.654Z,31.83
2022-11-28T16:49:36.357Z,33.73
2022-11-28T16:52:20.966Z,28.90
2022-11-28T16:54:51.968Z,24.87
2022-11-28T16:57:20.230Z,20.30
2022-11-28T16:59:48.665Z,22.87
2022-11-28T17:02:20.983Z,17.87
2022-11-28T17:04:49.687Z,21.20
2022-11-28T17:07:19.308Z,24.23
2022-11-28T17:09:47.679Z,21.77
2022-11-28T17:12:23.863Z,18.67
2022-11-28T17:14:50.673Z,24.50
2022-11-28T17:17:18.630Z,30.27
2022-11-28T17:19:46.803Z,18.70
2022-11-28T17:22:16.550Z,25.40
2022-11-28T17:24:43.389Z,21.13
2022-11-28T17:27:12.613Z,18.37
2022-11-28T17:29:39.159Z,21.23
2022-11-28T17:32:06.567Z,17.97
2022-11-28T17:34:36.185Z,18.70
2022-11-28T17:37:03.262Z,22.20
2022-11-28T17:39:29.828Z,17.13
2022-11-28T17:41:57.301Z,18.97
2022-11-28T17:44:25.948Z,32.67
2022-11-28T17:46:54.016Z,14.40
2022-11-28T17:49:20.828Z,17.63
2022-11-28T17:51:47.263Z,19.93
2022-11-28T17:54:16.693Z,25.43
2022-11-28T17:56:48.166Z,19.67
2022-11-28T17:59:20.518Z,16.50
2022-11-28T18:01:47.765Z,20.77
2022-11-28T18:04:14.429Z,20.90
2022-11-28T18:06:45.592Z,16.10
2022-11-28T18:09:13.005Z,16.87
2022-11-28T18:11:40.437Z,18.30
2022-11-28T18:14:06.844Z,14.17
2022-11-28T18:16:35.496Z,15.47
2022-11-28T18:19:02.056Z,18.70
2022-11-28T18:21:28.485Z,19.10
2022-11-28T18:23:54.896Z,21.83
2022-11-28T18:26:23.982Z,18.27
2022-11-28T18:28:51.002Z,15.80
2022-11-28T18:31:21.292Z,17.80
2022-11-28T18:33:48.438Z,24.57
2022-11-28T18:36:27.056Z,32.07
2022-11-28T18:39:02.521Z,27.80
2022-11-28T18:41:29.673Z,27.30
2022-11-28T18:43:58.308Z,30.67
2022-11-28T18:46:25.320Z,27.53
2022-11-28T18:48:52.126Z,30.43
2022-11-28T18:51:25.694Z,23.97
2022-11-28T18:53:53.390Z,25.77
2022-11-28T18:56:20.768Z,34.70
2022-11-28T18:58:49.621Z,41.27
2022-11-28T19:01:22.055Z,24.47
2022-11-28T19:03:55.037Z,32.03
2022-11-28T19:06:22.246Z,39.70
2022-11-28T19:08:52.094Z,41.57
2022-11-28T19:11:18.698Z,38.97
2022-11-28T19:13:47.016Z,50.40
2022-11-28T19:16:15.390Z,28.03
2022-11-28T19:18:43.239Z,38.93
2022-11-28T19:21:13.129Z,63.10
2022-11-28T19:23:41.596Z,51.77
2022-11-28T19:26:11.048Z,61.20
2022-11-28T19:28:39.282Z,55.33
2022-11-28T19:31:07.471Z,43.03
2022-11-28T19:33:34.013Z,57.23
2022-11-28T19:36:05.935Z,40.93
2022-11-28T19:38:34.478Z,54.13
2022-11-28T19:41:15.674Z,59.10
2022-11-28T19:43:42.704Z,56.33
2022-11-28T19:46:11.039Z,51.67
2022-11-28T19:48:38.809Z,51.50
2022-11-28T19:51:06.155Z,60.20
2022-11-28T19:53:34.262Z,52.60
2022-11-28T19:56:08.985Z,55.63
2022-11-28T19:58:36.104Z,57.43
2022-11-28T20:01:07.698Z,56.37
2022-11-28T20:03:35.653Z,48.10
2022-11-28T20:06:02.301Z,52.53
2022-11-28T20:08:29.111Z,49.63
2022-11-28T20:10:55.542Z,44.20
2022-11-28T20:13:21.998Z,48.67
2022-11-28T20:15:48.574Z,46.40
2022-11-28T20:18:15.076Z,45.13
2022-11-28T20:20:41.633Z,56.20
2022-11-28T20:23:08.123Z,60.33
2022-11-28T20:25:34.570Z,54.63
2022-11-28T20:28:01.023Z,47.27
2022-11-28T20:30:27.551Z,47.80
2022-11-28T20:32:54.652Z,59.37
2022-11-28T20:35:23.214Z,61.47
2022-11-28T20:37:50.443Z,58.80
2022-11-28T20:40:16.983Z,48.77
2022-11-28T20:42:44.528Z,66.23
2022-11-28T20:45:11.342Z,61.37
2022-11-28T20:47:37.837Z,60.63
2022-11-28T20:50:06.471Z,66.17
2022-11-28T20:52:32.882Z,52.67
2022-11-28T20:54:59.322Z,45.67
2022-11-28T20:57:26.499Z,50.00
2022-11-28T20:59:56.645Z,51.67
2022-11-28T21:02:23.793Z,63.70
2022-11-28T21:04:50.327Z,56.37
2022-11-28T21:07:16.772Z,67.33
2022-11-28T21:09:43.563Z,64.60
2022-11-28T21:12:10.115Z,65.83
2022-11-28T21:14:36.492Z,61.37
2022-11-28T21:17:02.993Z,59.07
2022-11-28T21:19:29.797Z,54.10
2022-11-28T21:21:56.274Z,58.33
2022-11-28T21:24:22.709Z,54.27
2022-11-28T21:26:53.575Z,53.70
2022-11-28T21:29:21.576Z,63.03
2022-11-28T21:31:48.155Z,48.77
2022-11-28T21:34:15.575Z,59.90
2022-11-28T21:36:42.851Z,50.30
2022-11-28T21:39:14.867Z,58.10
2022-11-28T21:41:41.783Z,50.07
2022-11-28T21:44:08.493Z,51.57
2022-11-28T21:46:34.911Z,48.87
2022-11-28T21:49:01.920Z,45.77
2022-11-28T21:51:28.839Z,49.67
2022-11-28T21:53:57.298Z,49.23
2022-11-28T21:56:24.074Z,55.30
2022-11-28T21:58:51.653Z,61.03
2022-11-28T22:01:21.059Z,84.07
2022-11-28T22:03:47.753Z,81.27
2022-11-28T22:06:25.123Z,87.07
2022-11-28T22:08:53.070Z,63.03
2022-11-28T22:11:21.062Z,55.30
2022-11-28T22:13:48.962Z,58.57
2022-11-28T22:16:18.593Z,43.47
2022-11-28T22:18:45.844Z,49.90
2022-11-28T22:21:49.832Z,50.67
2022-11-28T22:23:59.243Z,42.57
2022-11-28T22:26:25.624Z,44.93
2022-11-28T22:28:53.930Z,40.30
2022-11-28T22:31:21.166Z,37.30
2022-11-28T22:33:49.351Z,39.50
2022-11-28T22:36:18.575Z,41.07
2022-11-28T22:38:47.421Z,38.27
2022-11-28T22:41:16.586Z,46.20
2022-11-28T22:43:43.807Z,44.07
2022-11-28T22:46:11.265Z,44.07
2022-11-28T22:48:38.922Z,51.37
2022-11-28T22:51:17.436Z,53.33
2022-11-28T22:53:44.392Z,47.17
2022-11-28T22:56:13.928Z,47.63
2022-11-28T22:58:45.154Z,50.37
2022-11-28T23:01:22.835Z,51.77
2022-11-28T23:03:49.662Z,50.93
2022-11-28T23:06:19.141Z,51.57
2022-11-28T23:08:46.217Z,54.40
2022-11-28T23:11:22.147Z,47.03
2022-11-28T23:13:49.879Z,46.33
2022-11-28T23:16:25.283Z,45.10
2022-11-28T23:18:54.418Z,37.43
2022-11-28T23:21:22.550Z,37.40
2022-11-28T23:23:49.058Z,39.80
2022-11-28T23:26:21.224Z,45.00
2022-11-28T23:28:49.778Z,33.53
2022-11-28T23:31:20.296Z,35.63
2022-11-28T23:33:47.252Z,32.27
2022-11-28T23:36:14.693Z,33.13
2022-11-28T23:38:41.500Z,36.73
2022-11-28T23:41:08.199Z,34.13
2022-11-28T23:43:34.658Z,28.03
2022-11-28T23:46:01.239Z,30.00
2022-11-28T23:48:27.643Z,33.40
2022-11-28T23:50:54.169Z,37.57
2022-11-28T23:53:20.595Z,28.47
2022-11-28T23:55:47.050Z,37.17
2022-11-28T23:58:14.853Z,30.00
